sensor_id;sensor_type;location;lat;lon;timestamp;P1;durP1;ratioP1;P2;durP2;ratioP2
26082;SDS011;13848;49.018;12.078;2023-05-29T00:01:47;7.80;;;4.40;;
26082;SDS011;13848;49.018;12.078;2023-05-29T00:04:13;6.68;;;4.05;;
26082;SDS011;13848;49.018;12.078;2023-05-29T00:06:39;6.82;;;3.63;;
26082;SDS011;13848;49.018;12.078;2023-05-29T00:09:06;8.27;;;3.90;;
26082;SDS011;13848;49.018;12.078;2023-05-29T00:11:32;8.48;;;3.95;;
26082;SDS011;13848;49.018;12.078;2023-05-29T00:13:58;7.50;;;4.28;;
26082;SDS011;13848;49.018;12.078;2023-05-29T00:16:24;8.63;;;4.20;;
26082;SDS011;13848;49.018;12.078;2023-05-29T00:18:50;5.00;;;3.90;;
26082;SDS011;13848;49.018;12.078;2023-05-29T00:21:16;9.23;;;4.13;;
26082;SDS011;13848;49.018;12.078;2023-05-29T00:23:42;10.75;;;5.20;;
26082;SDS011;13848;49.018;12.078;2023-05-29T00:26:09;7.50;;;4.75;;
26082;SDS011;13848;49.018;12.078;2023-05-29T00:28:35;10.73;;;4.50;;
26082;SDS011;13848;49.018;12.078;2023-05-29T00:31:01;7.65;;;3.95;;
26082;SDS011;13848;49.018;12.078;2023-05-29T00:33:27;7.15;;;4.18;;
26082;SDS011;13848;49.018;12.078;2023-05-29T00:35:53;9.85;;;3.92;;
26082;SDS011;13848;49.018;12.078;2023-05-29T00:38:19;7.00;;;3.70;;
26082;SDS011;13848;49.018;12.078;2023-05-29T00:40:45;6.75;;;3.63;;
26082;SDS011;13848;49.018;12.078;2023-05-29T00:43:12;5.97;;;3.60;;
26082;SDS011;13848;49.018;12.078;2023-05-29T00:45:38;6.82;;;4.00;;
26082;SDS011;13848;49.018;12.078;2023-05-29T00:48:04;7.60;;;3.42;;
26082;SDS011;13848;49.018;12.078;2023-05-29T00:50:31;5.38;;;3.35;;
26082;SDS011;13848;49.018;12.078;2023-05-29T00:52:57;5.55;;;3.58;;
26082;SDS011;13848;49.018;12.078;2023-05-29T00:55:25;7.20;;;3.85;;
26082;SDS011;13848;49.018;12.078;2023-05-29T00:57:51;5.45;;;3.17;;
26082;SDS011;13848;49.018;12.078;2023-05-29T01:00:18;5.13;;;3.45;;
26082;SDS011;13848;49.018;12.078;2023-05-29T01:02:45;5.32;;;3.70;;
26082;SDS011;13848;49.018;12.078;2023-05-29T01:05:12;6.53;;;3.28;;
26082;SDS011;13848;49.018;12.078;2023-05-29T01:07:38;6.43;;;3.65;;
26082;SDS011;13848;49.018;12.078;2023-05-29T01:10:04;7.47;;;3.88;;
26082;SDS011;13848;49.018;12.078;2023-05-29T01:12:33;6.43;;;3.70;;
26082;SDS011;13848;49.018;12.078;2023-05-29T01:15:13;8.02;;;3.50;;
26082;SDS011;13848;49.018;12.078;2023-05-29T01:17:47;5.15;;;3.28;;
26082;SDS011;13848;49.018;12.078;2023-05-29T01:20:37;6.40;;;3.00;;
26082;SDS011;13848;49.018;12.078;2023-05-29T01:26:33;7.95;;;3.70;;
26082;SDS011;13848;49.018;12.078;2023-05-29T01:29:12;5.00;;;3.30;;
26082;SDS011;13848;49.018;12.078;2023-05-29T01:31:39;5.55;;;3.28;;
26082;SDS011;13848;49.018;12.078;2023-05-29T01:34:08;6.28;;;3.67;;
26082;SDS011;13848;49.018;12.078;2023-05-29T01:36:33;6.30;;;3.83;;
26082;SDS011;13848;49.018;12.078;2023-05-29T01:38:59;7.57;;;3.58;;
26082;SDS011;13848;49.018;12.078;2023-05-29T01:41:26;6.72;;;3.97;;
26082;SDS011;13848;49.018;12.078;2023-05-29T01:43:53;6.50;;;3.67;;
26082;SDS011;13848;49.018;12.078;2023-05-29T01:46:21;4.53;;;3.47;;
26082;SDS011;13848;49.018;12.078;2023-05-29T01:48:48;7.07;;;4.10;;
26082;SDS011;13848;49.018;12.078;2023-05-29T01:51:14;7.38;;;3.70;;
26082;SDS011;13848;49.018;12.078;2023-05-29T01:53:40;6.28;;;3.90;;
26082;SDS011;13848;49.018;12.078;2023-05-29T01:56:07;5.95;;;3.72;;
26082;SDS011;13848;49.018;12.078;2023-05-29T01:58:33;6.88;;;4.20;;
26082;SDS011;13848;49.018;12.078;2023-05-29T02:01:02;7.75;;;4.00;;
26082;SDS011;13848;49.018;12.078;2023-05-29T02:03:28;6.60;;;4.22;;
26082;SDS011;13848;49.018;12.078;2023-05-29T02:05:54;7.32;;;3.80;;
26082;SDS011;13848;49.018;12.078;2023-05-29T02:08:20;6.32;;;3.58;;
26082;SDS011;13848;49.018;12.078;2023-05-29T02:10:46;6.38;;;3.63;;
26082;SDS011;13848;49.018;12.078;2023-05-29T02:13:12;5.82;;;3.50;;
26082;SDS011;13848;49.018;12.078;2023-05-29T02:15:38;4.60;;;3.50;;
26082;SDS011;13848;49.018;12.078;2023-05-29T02:18:05;7.05;;;4.10;;
26082;SDS011;13848;49.018;12.078;2023-05-29T02:20:31;5.15;;;3.70;;
26082;SDS011;13848;49.018;12.078;2023-05-29T02:22:57;7.75;;;3.70;;
26082;SDS011;13848;49.018;12.078;2023-05-29T02:25:22;6.35;;;3.60;;
26082;SDS011;13848;49.018;12.078;2023-05-29T02:27:48;6.70;;;3.92;;
26082;SDS011;13848;49.018;12.078;2023-05-29T02:30:14;6.18;;;4.05;;
26082;SDS011;13848;49.018;12.078;2023-05-29T02:32:40;6.05;;;3.88;;
26082;SDS011;13848;49.018;12.078;2023-05-29T02:35:08;7.63;;;3.92;;
26082;SDS011;13848;49.018;12.078;2023-05-29T02:37:34;7.32;;;4.32;;
26082;SDS011;13848;49.018;12.078;2023-05-29T02:39:59;6.78;;;3.97;;
26082;SDS011;13848;49.018;12.078;2023-05-29T02:42:25;7.03;;;3.92;;
26082;SDS011;13848;49.018;12.078;2023-05-29T02:44:51;7.05;;;4.85;;
26082;SDS011;13848;49.018;12.078;2023-05-29T02:47:17;6.75;;;4.07;;
26082;SDS011;13848;49.018;12.078;2023-05-29T02:49:43;11.10;;;4.88;;
26082;SDS011;13848;49.018;12.078;2023-05-29T02:52:10;6.90;;;4.72;;
26082;SDS011;13848;49.018;12.078;2023-05-29T02:54:36;8.07;;;4.65;;
26082;SDS011;13848;49.018;12.078;2023-05-29T02:57:02;8.57;;;4.88;;
26082;SDS011;13848;49.018;12.078;2023-05-29T02:59:29;8.43;;;4.90;;
26082;SDS011;13848;49.018;12.078;2023-05-29T03:01:54;7.55;;;4.75;;
26082;SDS011;13848;49.018;12.078;2023-05-29T03:04:20;7.25;;;4.28;;
26082;SDS011;13848;49.018;12.078;2023-05-29T03:06:46;9.48;;;4.70;;
26082;SDS011;13848;49.018;12.078;2023-05-29T03:09:13;8.88;;;4.68;;
26082;SDS011;13848;49.018;12.078;2023-05-29T03:11:39;6.43;;;4.53;;
26082;SDS011;13848;49.018;12.078;2023-05-29T03:14:05;6.68;;;4.20;;
26082;SDS011;13848;49.018;12.078;2023-05-29T03:16:31;8.48;;;4.07;;
26082;SDS011;13848;49.018;12.078;2023-05-29T03:18:57;6.20;;;4.20;;
26082;SDS011;13848;49.018;12.078;2023-05-29T03:21:23;6.38;;;3.75;;
26082;SDS011;13848;49.018;12.078;2023-05-29T03:23:49;7.65;;;3.78;;
26082;SDS011;13848;49.018;12.078;2023-05-29T03:26:16;6.68;;;4.07;;
26082;SDS011;13848;49.018;12.078;2023-05-29T03:28:42;5.85;;;3.75;;
26082;SDS011;13848;49.018;12.078;2023-05-29T03:31:08;9.20;;;3.95;;
26082;SDS011;13848;49.018;12.078;2023-05-29T03:33:35;5.78;;;3.85;;
26082;SDS011;13848;49.018;12.078;2023-05-29T03:36:01;5.80;;;3.60;;
26082;SDS011;13848;49.018;12.078;2023-05-29T03:38:27;8.93;;;3.80;;
26082;SDS011;13848;49.018;12.078;2023-05-29T03:40:53;6.55;;;3.80;;
26082;SDS011;13848;49.018;12.078;2023-05-29T03:43:20;9.02;;;4.07;;
26082;SDS011;13848;49.018;12.078;2023-05-29T03:45:46;8.32;;;3.80;;
26082;SDS011;13848;49.018;12.078;2023-05-29T03:48:12;6.82;;;4.20;;
26082;SDS011;13848;49.018;12.078;2023-05-29T03:50:38;9.07;;;3.80;;
26082;SDS011;13848;49.018;12.078;2023-05-29T03:53:04;6.65;;;3.58;;
26082;SDS011;13848;49.018;12.078;2023-05-29T03:55:29;6.70;;;3.80;;
26082;SDS011;13848;49.018;12.078;2023-05-29T03:57:57;6.88;;;3.80;;
26082;SDS011;13848;49.018;12.078;2023-05-29T04:00:24;7.32;;;3.63;;
26082;SDS011;13848;49.018;12.078;2023-05-29T04:02:50;6.88;;;3.75;;
26082;SDS011;13848;49.018;12.078;2023-05-29T04:05:16;7.78;;;3.92;;
26082;SDS011;13848;49.018;12.078;2023-05-29T04:07:42;7.03;;;3.95;;
26082;SDS011;13848;49.018;12.078;2023-05-29T04:10:08;7.25;;;3.78;;
26082;SDS011;13848;49.018;12.078;2023-05-29T04:12:34;6.80;;;4.22;;
26082;SDS011;13848;49.018;12.078;2023-05-29T04:15:00;7.97;;;3.92;;
26082;SDS011;13848;49.018;12.078;2023-05-29T04:17:28;8.73;;;3.90;;
26082;SDS011;13848;49.018;12.078;2023-05-29T04:19:54;7.15;;;3.88;;
26082;SDS011;13848;49.018;12.078;2023-05-29T04:22:19;6.53;;;4.00;;
26082;SDS011;13848;49.018;12.078;2023-05-29T04:24:46;6.15;;;4.13;;
26082;SDS011;13848;49.018;12.078;2023-05-29T04:27:12;6.90;;;4.07;;
26082;SDS011;13848;49.018;12.078;2023-05-29T04:29:37;6.72;;;4.10;;
26082;SDS011;13848;49.018;12.078;2023-05-29T04:32:04;7.07;;;3.78;;
26082;SDS011;13848;49.018;12.078;2023-05-29T04:34:31;8.10;;;3.83;;
26082;SDS011;13848;49.018;12.078;2023-05-29T04:36:57;5.53;;;3.65;;
26082;SDS011;13848;49.018;12.078;2023-05-29T04:39:23;7.20;;;3.85;;
26082;SDS011;13848;49.018;12.078;2023-05-29T04:41:49;8.00;;;3.95;;
26082;SDS011;13848;49.018;12.078;2023-05-29T04:44:15;7.18;;;3.97;;
26082;SDS011;13848;49.018;12.078;2023-05-29T04:46:40;9.18;;;3.83;;
26082;SDS011;13848;49.018;12.078;2023-05-29T04:49:06;5.63;;;3.67;;
26082;SDS011;13848;49.018;12.078;2023-05-29T04:51:34;7.57;;;3.85;;
26082;SDS011;13848;49.018;12.078;2023-05-29T04:53:59;9.30;;;4.53;;
26082;SDS011;13848;49.018;12.078;2023-05-29T04:56:25;7.03;;;3.88;;
26082;SDS011;13848;49.018;12.078;2023-05-29T04:58:51;5.70;;;3.83;;
26082;SDS011;13848;49.018;12.078;2023-05-29T05:01:17;6.93;;;4.10;;
26082;SDS011;13848;49.018;12.078;2023-05-29T05:03:43;5.13;;;3.35;;
26082;SDS011;13848;49.018;12.078;2023-05-29T05:06:09;5.07;;;3.78;;
26082;SDS011;13848;49.018;12.078;2023-05-29T05:08:36;12.30;;;4.28;;
26082;SDS011;13848;49.018;12.078;2023-05-29T05:11:02;5.65;;;3.63;;
26082;SDS011;13848;49.018;12.078;2023-05-29T05:13:28;5.07;;;3.33;;
26082;SDS011;13848;49.018;12.078;2023-05-29T05:15:54;8.60;;;3.60;;
26082;SDS011;13848;49.018;12.078;2023-05-29T05:18:20;6.03;;;3.83;;
26082;SDS011;13848;49.018;12.078;2023-05-29T05:20:46;7.80;;;3.55;;
26082;SDS011;13848;49.018;12.078;2023-05-29T05:23:12;6.65;;;3.33;;
26082;SDS011;13848;49.018;12.078;2023-05-29T05:25:39;7.22;;;4.03;;
26082;SDS011;13848;49.018;12.078;2023-05-29T05:28:05;8.43;;;3.42;;
26082;SDS011;13848;49.018;12.078;2023-05-29T05:30:31;4.28;;;2.97;;
26082;SDS011;13848;49.018;12.078;2023-05-29T05:32:57;7.63;;;3.38;;
26082;SDS011;13848;49.018;12.078;2023-05-29T05:35:23;5.43;;;2.95;;
26082;SDS011;13848;49.018;12.078;2023-05-29T05:37:49;6.85;;;4.25;;
26082;SDS011;13848;49.018;12.078;2023-05-29T05:40:15;10.35;;;4.38;;
26082;SDS011;13848;49.018;12.078;2023-05-29T05:42:42;6.13;;;3.75;;
26082;SDS011;13848;49.018;12.078;2023-05-29T05:45:09;7.88;;;3.92;;
26082;SDS011;13848;49.018;12.078;2023-05-29T05:47:35;6.10;;;3.40;;
26082;SDS011;13848;49.018;12.078;2023-05-29T05:50:01;6.68;;;3.30;;
26082;SDS011;13848;49.018;12.078;2023-05-29T05:52:27;8.48;;;3.40;;
26082;SDS011;13848;49.018;12.078;2023-05-29T05:54:53;5.20;;;3.40;;
26082;SDS011;13848;49.018;12.078;2023-05-29T05:57:19;5.60;;;3.33;;
26082;SDS011;13848;49.018;12.078;2023-05-29T05:59:46;5.70;;;3.67;;
26082;SDS011;13848;49.018;12.078;2023-05-29T06:02:12;12.40;;;5.75;;
26082;SDS011;13848;49.018;12.078;2023-05-29T06:04:38;6.78;;;3.47;;
26082;SDS011;13848;49.018;12.078;2023-05-29T06:07:04;6.22;;;3.40;;
26082;SDS011;13848;49.018;12.078;2023-05-29T06:09:30;4.82;;;3.38;;
26082;SDS011;13848;49.018;12.078;2023-05-29T06:11:55;7.78;;;3.53;;
26082;SDS011;13848;49.018;12.078;2023-05-29T06:14:21;8.15;;;3.10;;
26082;SDS011;13848;49.018;12.078;2023-05-29T06:16:49;4.32;;;2.88;;
26082;SDS011;13848;49.018;12.078;2023-05-29T06:19:15;4.97;;;2.90;;
26082;SDS011;13848;49.018;12.078;2023-05-29T06:21:41;6.78;;;3.00;;
26082;SDS011;13848;49.018;12.078;2023-05-29T06:24:07;4.85;;;3.17;;
26082;SDS011;13848;49.018;12.078;2023-05-29T06:26:33;6.75;;;3.35;;
26082;SDS011;13848;49.018;12.078;2023-05-29T06:28:59;6.30;;;3.63;;
26082;SDS011;13848;49.018;12.078;2023-05-29T06:31:25;6.15;;;3.15;;
26082;SDS011;13848;49.018;12.078;2023-05-29T06:33:53;6.97;;;3.38;;
26082;SDS011;13848;49.018;12.078;2023-05-29T06:36:18;9.90;;;3.47;;
26082;SDS011;13848;49.018;12.078;2023-05-29T06:38:47;6.88;;;3.50;;
26082;SDS011;13848;49.018;12.078;2023-05-29T06:41:14;4.40;;;3.15;;
26082;SDS011;13848;49.018;12.078;2023-05-29T06:43:39;4.47;;;3.10;;
26082;SDS011;13848;49.018;12.078;2023-05-29T06:46:05;5.55;;;3.17;;
26082;SDS011;13848;49.018;12.078;2023-05-29T06:48:32;4.20;;;2.97;;
26082;SDS011;13848;49.018;12.078;2023-05-29T06:50:59;7.50;;;3.00;;
26082;SDS011;13848;49.018;12.078;2023-05-29T06:53:25;7.40;;;3.60;;
26082;SDS011;13848;49.018;12.078;2023-05-29T06:55:52;5.28;;;3.35;;
26082;SDS011;13848;49.018;12.078;2023-05-29T06:58:17;6.20;;;3.10;;
26082;SDS011;13848;49.018;12.078;2023-05-29T07:00:44;6.40;;;3.25;;
26082;SDS011;13848;49.018;12.078;2023-05-29T07:03:09;5.72;;;3.15;;
26082;SDS011;13848;49.018;12.078;2023-05-29T07:05:35;5.13;;;3.33;;
26082;SDS011;13848;49.018;12.078;2023-05-29T07:08:03;4.35;;;3.10;;
26082;SDS011;13848;49.018;12.078;2023-05-29T07:10:29;4.63;;;2.80;;
26082;SDS011;13848;49.018;12.078;2023-05-29T07:12:54;5.30;;;3.35;;
26082;SDS011;13848;49.018;12.078;2023-05-29T07:15:20;5.55;;;3.05;;
26082;SDS011;13848;49.018;12.078;2023-05-29T07:17:46;5.22;;;3.20;;
26082;SDS011;13848;49.018;12.078;2023-05-29T07:20:12;7.43;;;3.40;;
26082;SDS011;13848;49.018;12.078;2023-05-29T07:22:38;5.97;;;3.25;;
26082;SDS011;13848;49.018;12.078;2023-05-29T07:25:06;8.63;;;4.68;;
26082;SDS011;13848;49.018;12.078;2023-05-29T07:27:32;5.05;;;2.80;;
26082;SDS011;13848;49.018;12.078;2023-05-29T07:29:58;9.50;;;3.13;;
26082;SDS011;13848;49.018;12.078;2023-05-29T07:32:24;5.03;;;2.75;;
26082;SDS011;13848;49.018;12.078;2023-05-29T07:34:50;7.78;;;2.78;;
26082;SDS011;13848;49.018;12.078;2023-05-29T07:37:15;7.90;;;3.00;;
26082;SDS011;13848;49.018;12.078;2023-05-29T07:39:41;4.47;;;2.67;;
26082;SDS011;13848;49.018;12.078;2023-05-29T07:42:09;5.20;;;3.08;;
26082;SDS011;13848;49.018;12.078;2023-05-29T07:44:35;3.63;;;2.67;;
26082;SDS011;13848;49.018;12.078;2023-05-29T07:47:01;5.20;;;2.90;;
26082;SDS011;13848;49.018;12.078;2023-05-29T07:49:26;5.50;;;2.70;;
26082;SDS011;13848;49.018;12.078;2023-05-29T07:51:52;9.77;;;2.65;;
26082;SDS011;13848;49.018;12.078;2023-05-29T07:54:18;5.38;;;2.70;;
26082;SDS011;13848;49.018;12.078;2023-05-29T07:56:44;3.88;;;2.55;;
26082;SDS011;13848;49.018;12.078;2023-05-29T07:59:11;4.15;;;2.47;;
26082;SDS011;13848;49.018;12.078;2023-05-29T08:01:38;7.55;;;2.47;;
26082;SDS011;13848;49.018;12.078;2023-05-29T08:04:04;5.80;;;2.90;;
26082;SDS011;13848;49.018;12.078;2023-05-29T08:06:29;4.65;;;2.72;;
26082;SDS011;13848;49.018;12.078;2023-05-29T08:08:56;5.15;;;3.03;;
26082;SDS011;13848;49.018;12.078;2023-05-29T08:11:21;8.90;;;3.95;;
26082;SDS011;13848;49.018;12.078;2023-05-29T08:13:47;4.53;;;2.33;;
26082;SDS011;13848;49.018;12.078;2023-05-29T08:16:15;4.13;;;2.90;;
26082;SDS011;13848;49.018;12.078;2023-05-29T08:18:41;4.40;;;2.72;;
26082;SDS011;13848;49.018;12.078;2023-05-29T08:21:07;4.45;;;2.50;;
26082;SDS011;13848;49.018;12.078;2023-05-29T08:23:32;3.58;;;2.53;;
26082;SDS011;13848;49.018;12.078;2023-05-29T08:25:58;4.43;;;2.50;;
26082;SDS011;13848;49.018;12.078;2023-05-29T08:28:24;5.75;;;3.10;;
26082;SDS011;13848;49.018;12.078;2023-05-29T08:30:50;4.25;;;2.70;;
26082;SDS011;13848;49.018;12.078;2023-05-29T08:33:17;7.82;;;2.95;;
26082;SDS011;13848;49.018;12.078;2023-05-29T08:35:43;4.85;;;2.70;;
26082;SDS011;13848;49.018;12.078;2023-05-29T08:38:09;5.55;;;2.85;;
26082;SDS011;13848;49.018;12.078;2023-05-29T08:40:35;6.70;;;3.83;;
26082;SDS011;13848;49.018;12.078;2023-05-29T08:43:02;7.57;;;3.08;;
26082;SDS011;13848;49.018;12.078;2023-05-29T08:45:33;9.35;;;5.07;;
26082;SDS011;13848;49.018;12.078;2023-05-29T08:47:59;5.35;;;2.95;;
26082;SDS011;13848;49.018;12.078;2023-05-29T08:50:27;6.63;;;2.53;;
26082;SDS011;13848;49.018;12.078;2023-05-29T08:52:53;8.02;;;2.83;;
26082;SDS011;13848;49.018;12.078;2023-05-29T08:55:19;4.88;;;2.50;;
26082;SDS011;13848;49.018;12.078;2023-05-29T08:57:45;4.90;;;2.72;;
26082;SDS011;13848;49.018;12.078;2023-05-29T09:00:11;3.75;;;2.72;;
26082;SDS011;13848;49.018;12.078;2023-05-29T09:02:38;5.28;;;3.10;;
26082;SDS011;13848;49.018;12.078;2023-05-29T09:05:04;7.82;;;2.67;;
26082;SDS011;13848;49.018;12.078;2023-05-29T09:07:32;6.20;;;2.90;;
26082;SDS011;13848;49.018;12.078;2023-05-29T09:09:59;8.10;;;3.13;;
26082;SDS011;13848;49.018;12.078;2023-05-29T09:12:25;5.18;;;2.75;;
26082;SDS011;13848;49.018;12.078;2023-05-29T09:14:51;7.00;;;4.43;;
26082;SDS011;13848;49.018;12.078;2023-05-29T09:17:17;5.78;;;3.00;;
26082;SDS011;13848;49.018;12.078;2023-05-29T09:19:43;7.75;;;3.72;;
26082;SDS011;13848;49.018;12.078;2023-05-29T09:22:09;10.43;;;2.70;;
26082;SDS011;13848;49.018;12.078;2023-05-29T09:24:38;7.43;;;2.50;;
26082;SDS011;13848;49.018;12.078;2023-05-29T09:27:04;2.67;;;2.25;;
26082;SDS011;13848;49.018;12.078;2023-05-29T09:29:30;3.53;;;2.47;;
26082;SDS011;13848;49.018;12.078;2023-05-29T09:31:56;5.07;;;3.10;;
26082;SDS011;13848;49.018;12.078;2023-05-29T09:34:23;3.88;;;2.85;;
26082;SDS011;13848;49.018;12.078;2023-05-29T09:36:49;13.35;;;2.83;;
26082;SDS011;13848;49.018;12.078;2023-05-29T09:39:15;5.95;;;2.58;;
26082;SDS011;13848;49.018;12.078;2023-05-29T09:41:43;5.38;;;2.80;;
26082;SDS011;13848;49.018;12.078;2023-05-29T09:44:11;4.65;;;2.60;;
26082;SDS011;13848;49.018;12.078;2023-05-29T09:46:38;4.75;;;2.58;;
26082;SDS011;13848;49.018;12.078;2023-05-29T09:49:05;4.90;;;2.65;;
26082;SDS011;13848;49.018;12.078;2023-05-29T09:51:35;3.80;;;2.58;;
26082;SDS011;13848;49.018;12.078;2023-05-29T09:54:12;3.92;;;2.58;;
26082;SDS011;13848;49.018;12.078;2023-05-29T09:56:38;5.07;;;3.75;;
26082;SDS011;13848;49.018;12.078;2023-05-29T09:59:07;6.78;;;3.03;;
26082;SDS011;13848;49.018;12.078;2023-05-29T10:01:36;4.13;;;2.60;;
26082;SDS011;13848;49.018;12.078;2023-05-29T10:04:03;10.88;;;6.40;;
26082;SDS011;13848;49.018;12.078;2023-05-29T10:06:29;4.55;;;2.70;;
26082;SDS011;13848;49.018;12.078;2023-05-29T10:08:55;5.72;;;2.85;;
26082;SDS011;13848;49.018;12.078;2023-05-29T10:11:23;4.55;;;2.75;;
26082;SDS011;13848;49.018;12.078;2023-05-29T10:13:49;5.15;;;2.53;;
26082;SDS011;13848;49.018;12.078;2023-05-29T10:16:19;7.43;;;2.83;;
26082;SDS011;13848;49.018;12.078;2023-05-29T10:18:47;4.68;;;2.15;;
26082;SDS011;13848;49.018;12.078;2023-05-29T10:23:45;7.53;;;2.60;;
26082;SDS011;13848;49.018;12.078;2023-05-29T10:26:14;4.60;;;2.50;;
26082;SDS011;13848;49.018;12.078;2023-05-29T10:28:44;3.83;;;2.35;;
26082;SDS011;13848;49.018;12.078;2023-05-29T10:31:16;3.15;;;2.60;;
26082;SDS011;13848;49.018;12.078;2023-05-29T10:33:50;3.47;;;2.45;;
26082;SDS011;13848;49.018;12.078;2023-05-29T10:36:22;4.05;;;2.40;;
26082;SDS011;13848;49.018;12.078;2023-05-29T10:38:51;8.75;;;3.28;;
26082;SDS011;13848;49.018;12.078;2023-05-29T10:41:30;3.58;;;2.53;;
26082;SDS011;13848;49.018;12.078;2023-05-29T10:43:57;4.13;;;2.60;;
26082;SDS011;13848;49.018;12.078;2023-05-29T10:49:26;4.57;;;2.97;;
26082;SDS011;13848;49.018;12.078;2023-05-29T10:51:54;4.38;;;2.33;;
26082;SDS011;13848;49.018;12.078;2023-05-29T10:54:23;6.15;;;2.67;;
26082;SDS011;13848;49.018;12.078;2023-05-29T10:56:51;5.30;;;2.80;;
26082;SDS011;13848;49.018;12.078;2023-05-29T10:59:18;4.72;;;2.60;;
26082;SDS011;13848;49.018;12.078;2023-05-29T11:01:44;4.07;;;2.50;;
26082;SDS011;13848;49.018;12.078;2023-05-29T11:04:27;4.50;;;2.60;;
26082;SDS011;13848;49.018;12.078;2023-05-29T11:06:54;4.90;;;2.78;;
26082;SDS011;13848;49.018;12.078;2023-05-29T11:09:26;5.88;;;2.47;;
26082;SDS011;13848;49.018;12.078;2023-05-29T11:14:45;4.90;;;2.50;;
26082;SDS011;13848;49.018;12.078;2023-05-29T11:19:57;4.88;;;2.60;;
26082;SDS011;13848;49.018;12.078;2023-05-29T11:22:27;4.00;;;2.60;;
26082;SDS011;13848;49.018;12.078;2023-05-29T11:25:04;5.72;;;2.40;;
26082;SDS011;13848;49.018;12.078;2023-05-29T11:27:30;3.13;;;2.45;;
26082;SDS011;13848;49.018;12.078;2023-05-29T11:29:57;8.82;;;2.70;;
26082;SDS011;13848;49.018;12.078;2023-05-29T11:32:23;3.63;;;2.55;;
26082;SDS011;13848;49.018;12.078;2023-05-29T11:34:53;2.75;;;2.08;;
26082;SDS011;13848;49.018;12.078;2023-05-29T11:37:22;5.35;;;2.30;;
26082;SDS011;13848;49.018;12.078;2023-05-29T11:39:49;6.18;;;2.80;;
26082;SDS011;13848;49.018;12.078;2023-05-29T11:42:16;4.60;;;2.50;;
26082;SDS011;13848;49.018;12.078;2023-05-29T11:44:42;3.88;;;2.70;;
26082;SDS011;13848;49.018;12.078;2023-05-29T11:47:08;3.38;;;2.42;;
26082;SDS011;13848;49.018;12.078;2023-05-29T11:49:34;3.72;;;2.50;;
26082;SDS011;13848;49.018;12.078;2023-05-29T11:52:07;3.45;;;2.45;;
26082;SDS011;13848;49.018;12.078;2023-05-29T11:54:35;4.30;;;2.50;;
26082;SDS011;13848;49.018;12.078;2023-05-29T11:57:01;4.55;;;2.63;;
26082;SDS011;13848;49.018;12.078;2023-05-29T11:59:28;6.88;;;2.40;;
26082;SDS011;13848;49.018;12.078;2023-05-29T12:01:54;4.80;;;2.30;;
26082;SDS011;13848;49.018;12.078;2023-05-29T12:04:20;4.95;;;2.75;;
26082;SDS011;13848;49.018;12.078;2023-05-29T12:06:46;6.50;;;2.72;;
26082;SDS011;13848;49.018;12.078;2023-05-29T12:09:23;4.43;;;2.20;;
26082;SDS011;13848;49.018;12.078;2023-05-29T12:11:51;6.10;;;2.20;;
26082;SDS011;13848;49.018;12.078;2023-05-29T12:14:18;5.32;;;2.50;;
26082;SDS011;13848;49.018;12.078;2023-05-29T12:16:45;4.97;;;2.10;;
26082;SDS011;13848;49.018;12.078;2023-05-29T12:19:11;2.83;;;2.05;;
26082;SDS011;13848;49.018;12.078;2023-05-29T12:21:40;4.13;;;2.38;;
26082;SDS011;13848;49.018;12.078;2023-05-29T12:24:07;2.58;;;2.10;;
26082;SDS011;13848;49.018;12.078;2023-05-29T12:26:33;4.75;;;2.38;;
26082;SDS011;13848;49.018;12.078;2023-05-29T12:29:03;3.08;;;2.22;;
26082;SDS011;13848;49.018;12.078;2023-05-29T12:31:29;3.22;;;2.50;;
26082;SDS011;13848;49.018;12.078;2023-05-29T12:33:59;5.68;;;2.30;;
26082;SDS011;13848;49.018;12.078;2023-05-29T12:36:25;4.57;;;2.28;;
26082;SDS011;13848;49.018;12.078;2023-05-29T12:38:51;5.70;;;2.60;;
26082;SDS011;13848;49.018;12.078;2023-05-29T12:41:24;3.08;;;2.00;;
26082;SDS011;13848;49.018;12.078;2023-05-29T12:43:52;4.45;;;2.78;;
26082;SDS011;13848;49.018;12.078;2023-05-29T12:46:19;5.15;;;2.35;;
26082;SDS011;13848;49.018;12.078;2023-05-29T12:48:45;5.72;;;2.78;;
26082;SDS011;13848;49.018;12.078;2023-05-29T12:51:11;3.17;;;2.30;;
26082;SDS011;13848;49.018;12.078;2023-05-29T12:53:37;4.47;;;2.67;;
26082;SDS011;13848;49.018;12.078;2023-05-29T12:56:03;4.47;;;2.33;;
26082;SDS011;13848;49.018;12.078;2023-05-29T12:58:29;2.78;;;2.05;;
26082;SDS011;13848;49.018;12.078;2023-05-29T13:00:55;4.63;;;2.38;;
26082;SDS011;13848;49.018;12.078;2023-05-29T13:03:23;7.43;;;2.63;;
26082;SDS011;13848;49.018;12.078;2023-05-29T13:05:49;3.50;;;2.08;;
26082;SDS011;13848;49.018;12.078;2023-05-29T13:08:15;3.47;;;2.30;;
26082;SDS011;13848;49.018;12.078;2023-05-29T13:10:40;3.78;;;2.30;;
26082;SDS011;13848;49.018;12.078;2023-05-29T13:13:06;5.45;;;2.25;;
26082;SDS011;13848;49.018;12.078;2023-05-29T13:15:32;2.92;;;2.47;;
26082;SDS011;13848;49.018;12.078;2023-05-29T13:17:58;3.42;;;2.38;;
26082;SDS011;13848;49.018;12.078;2023-05-29T13:20:26;4.53;;;2.30;;
26082;SDS011;13848;49.018;12.078;2023-05-29T13:22:52;5.55;;;2.30;;
26082;SDS011;13848;49.018;12.078;2023-05-29T13:25:18;3.55;;;2.35;;
26082;SDS011;13848;49.018;12.078;2023-05-29T13:27:44;8.10;;;2.90;;
26082;SDS011;13848;49.018;12.078;2023-05-29T13:30:12;3.72;;;2.28;;
26082;SDS011;13848;49.018;12.078;2023-05-29T13:32:38;5.13;;;2.55;;
26082;SDS011;13848;49.018;12.078;2023-05-29T13:35:05;3.25;;;2.20;;
26082;SDS011;13848;49.018;12.078;2023-05-29T13:37:32;3.42;;;2.05;;
26082;SDS011;13848;49.018;12.078;2023-05-29T13:39:58;4.35;;;2.45;;
26082;SDS011;13848;49.018;12.078;2023-05-29T13:42:24;3.17;;;2.38;;
26082;SDS011;13848;49.018;12.078;2023-05-29T13:44:50;6.57;;;2.33;;
26082;SDS011;13848;49.018;12.078;2023-05-29T13:47:16;5.38;;;2.28;;
26082;SDS011;13848;49.018;12.078;2023-05-29T13:49:42;3.92;;;2.10;;
26082;SDS011;13848;49.018;12.078;2023-05-29T13:52:08;2.78;;;2.00;;
26082;SDS011;13848;49.018;12.078;2023-05-29T13:54:35;3.83;;;2.08;;
26082;SDS011;13848;49.018;12.078;2023-05-29T13:57:01;3.72;;;2.00;;
26082;SDS011;13848;49.018;12.078;2023-05-29T13:59:28;8.60;;;2.70;;
26082;SDS011;13848;49.018;12.078;2023-05-29T14:01:54;3.63;;;2.33;;
26082;SDS011;13848;49.018;12.078;2023-05-29T14:04:19;3.10;;;2.20;;
26082;SDS011;13848;49.018;12.078;2023-05-29T14:06:45;5.18;;;2.33;;
26082;SDS011;13848;49.018;12.078;2023-05-29T14:09:11;3.03;;;2.03;;
26082;SDS011;13848;49.018;12.078;2023-05-29T14:11:39;3.55;;;2.30;;
26082;SDS011;13848;49.018;12.078;2023-05-29T14:14:05;8.90;;;2.28;;
26082;SDS011;13848;49.018;12.078;2023-05-29T14:16:31;4.47;;;2.30;;
26082;SDS011;13848;49.018;12.078;2023-05-29T14:18:57;3.35;;;2.05;;
26082;SDS011;13848;49.018;12.078;2023-05-29T14:21:23;3.72;;;2.40;;
26082;SDS011;13848;49.018;12.078;2023-05-29T14:23:49;4.93;;;2.55;;
26082;SDS011;13848;49.018;12.078;2023-05-29T14:26:15;3.63;;;2.45;;
26082;SDS011;13848;49.018;12.078;2023-05-29T14:28:43;3.35;;;2.00;;
26082;SDS011;13848;49.018;12.078;2023-05-29T14:31:10;4.85;;;2.30;;
26082;SDS011;13848;49.018;12.078;2023-05-29T14:33:36;3.58;;;2.55;;
26082;SDS011;13848;49.018;12.078;2023-05-29T14:36:01;3.28;;;2.55;;
26082;SDS011;13848;49.018;12.078;2023-05-29T14:38:27;4.18;;;2.97;;
26082;SDS011;13848;49.018;12.078;2023-05-29T14:40:53;4.43;;;2.42;;
26082;SDS011;13848;49.018;12.078;2023-05-29T14:43:19;4.03;;;2.00;;
26082;SDS011;13848;49.018;12.078;2023-05-29T14:45:47;5.72;;;3.70;;